sensor_id;sensor_type;location;lat;lon;timestamp;temperature;humidity
7216;DHT22;3649;48.798;9.798;2023-08-01T00:01:50;21.70;99.90
7216;DHT22;3649;48.798;9.798;2023-08-01T00:04:17;21.70;99.90
7216;DHT22;3649;48.798;9.798;2023-08-01T00:06:44;21.80;99.90
7216;DHT22;3649;48.798;9.798;2023-08-01T00:09:14;21.80;99.90
7216;DHT22;3649;48.798;9.798;2023-08-01T00:11:41;21.70;99.90
7216;DHT22;3649;48.798;9.798;2023-08-01T00:14:08;21.70;99.90
7216;DHT22;3649;48.798;9.798;2023-08-01T00:16:34;22.80;99.90
7216;DHT22;3649;48.798;9.798;2023-08-01T00:19:01;21.60;99.90
7216;DHT22;3649;48.798;9.798;2023-08-01T00:21:28;21.60;99.90
7216;DHT22;3649;48.798;9.798;2023-08-01T00:23:58;21.60;99.90
7216;DHT22;3649;48.798;9.798;2023-08-01T00:26:25;21.70;99.90
7216;DHT22;3649;48.798;9.798;2023-08-01T00:28:52;21.70;99.90
7216;DHT22;3649;48.798;9.798;2023-08-01T00:31:19;21.70;99.90
7216;DHT22;3649;48.798;9.798;2023-08-01T00:33:46;21.80;99.90
7216;DHT22;3649;48.798;9.798;2023-08-01T00:36:12;21.70;99.90
7216;DHT22;3649;48.798;9.798;2023-08-01T00:38:39;21.60;99.90
7216;DHT22;3649;48.798;9.798;2023-08-01T00:41:07;21.60;99.90
7216;DHT22;3649;48.798;9.798;2023-08-01T00:43:34;21.40;99.90
7216;DHT22;3649;48.798;9.798;2023-08-01T00:46:03;21.50;99.90
7216;DHT22;3649;48.798;9.798;2023-08-01T00:48:31;21.40;99.90
7216;DHT22;3649;48.798;9.798;2023-08-01T00:51:00;21.40;99.90
7216;DHT22;3649;48.798;9.798;2023-08-01T00:53:27;21.30;99.90
7216;DHT22;3649;48.798;9.798;2023-08-01T00:55:55;21.30;99.90
7216;DHT22;3649;48.798;9.798;2023-08-01T00:58:23;21.30;99.90
7216;DHT22;3649;48.798;9.798;2023-08-01T01:00:50;21.20;99.90
7216;DHT22;3649;48.798;9.798;2023-08-01T01:03:17;21.20;99.90
7216;DHT22;3649;48.798;9.798;2023-08-01T01:05:53;21.00;99.90
7216;DHT22;3649;48.798;9.798;2023-08-01T01:08:21;21.10;99.90
7216;DHT22;3649;48.798;9.798;2023-08-01T01:10:48;21.00;99.90
7216;DHT22;3649;48.798;9.798;2023-08-01T01:13:15;20.90;99.90
7216;DHT22;3649;48.798;9.798;2023-08-01T01:15:42;20.90;99.90
7216;DHT22;3649;48.798;9.798;2023-08-01T01:18:09;20.80;99.90
7216;DHT22;3649;48.798;9.798;2023-08-01T01:20:36;20.90;99.90
7216;DHT22;3649;48.798;9.798;2023-08-01T01:23:04;20.90;99.90
7216;DHT22;3649;48.798;9.798;2023-08-01T01:25:32;20.90;99.90
7216;DHT22;3649;48.798;9.798;2023-08-01T01:27:59;20.90;99.90
7216;DHT22;3649;48.798;9.798;2023-08-01T01:30:30;20.80;99.90
7216;DHT22;3649;48.798;9.798;2023-08-01T01:33:00;20.90;99.90
7216;DHT22;3649;48.798;9.798;2023-08-01T01:35:28;20.90;99.90
7216;DHT22;3649;48.798;9.798;2023-08-01T01:37:54;20.90;99.90
7216;DHT22;3649;48.798;9.798;2023-08-01T01:40:21;20.90;99.90
7216;DHT22;3649;48.798;9.798;2023-08-01T01:42:48;20.90;99.90
7216;DHT22;3649;48.798;9.798;2023-08-01T01:45:16;21.00;99.90
7216;DHT22;3649;48.798;9.798;2023-08-01T01:47:42;20.90;99.90
7216;DHT22;3649;48.798;9.798;2023-08-01T01:50:09;21.00;99.90
7216;DHT22;3649;48.798;9.798;2023-08-01T01:52:36;21.10;99.90
7216;DHT22;3649;48.798;9.798;2023-08-01T01:55:04;21.00;99.90
7216;DHT22;3649;48.798;9.798;2023-08-01T01:57:30;20.90;99.90
7216;DHT22;3649;48.798;9.798;2023-08-01T01:59:57;20.80;99.90
7216;DHT22;3649;48.798;9.798;2023-08-01T02:02:24;20.80;99.90
7216;DHT22;3649;48.798;9.798;2023-08-01T02:04:51;20.80;99.90
7216;DHT22;3649;48.798;9.798;2023-08-01T02:07:18;20.70;99.90
7216;DHT22;3649;48.798;9.798;2023-08-01T02:09:45;20.60;99.90
7216;DHT22;3649;48.798;9.798;2023-08-01T02:12:13;20.60;99.90
7216;DHT22;3649;48.798;9.798;2023-08-01T02:14:43;20.60;99.90
7216;DHT22;3649;48.798;9.798;2023-08-01T02:17:10;20.70;99.90
7216;DHT22;3649;48.798;9.798;2023-08-01T02:19:36;20.80;99.90
7216;DHT22;3649;48.798;9.798;2023-08-01T02:22:03;20.80;99.90
7216;DHT22;3649;48.798;9.798;2023-08-01T02:24:30;20.60;99.90
7216;DHT22;3649;48.798;9.798;2023-08-01T02:26:57;20.60;99.90
7216;DHT22;3649;48.798;9.798;2023-08-01T02:29:24;20.60;99.90
7216;DHT22;3649;48.798;9.798;2023-08-01T02:31:51;20.70;99.90
7216;DHT22;3649;48.798;9.798;2023-08-01T02:34:17;20.70;99.90
7216;DHT22;3649;48.798;9.798;2023-08-01T02:36:44;20.10;99.90
7216;DHT22;3649;48.798;9.798;2023-08-01T02:39:11;20.70;99.90
7216;DHT22;3649;48.798;9.798;2023-08-01T02:41:38;20.70;99.90
7216;DHT22;3649;48.798;9.798;2023-08-01T02:44:04;20.80;99.90
7216;DHT22;3649;48.798;9.798;2023-08-01T02:46:31;20.80;99.90
7216;DHT22;3649;48.798;9.798;2023-08-01T02:48:58;20.80;99.90
7216;DHT22;3649;48.798;9.798;2023-08-01T02:51:25;20.90;99.90
7216;DHT22;3649;48.798;9.798;2023-08-01T02:53:52;20.90;99.90
7216;DHT22;3649;48.798;9.798;2023-08-01T02:56:19;20.90;99.90
7216;DHT22;3649;48.798;9.798;2023-08-01T02:58:45;21.00;99.90
7216;DHT22;3649;48.798;9.798;2023-08-01T03:01:12;21.00;99.90
7216;DHT22;3649;48.798;9.798;2023-08-01T03:03:40;20.90;99.90
7216;DHT22;3649;48.798;9.798;2023-08-01T03:06:08;20.90;99.90
7216;DHT22;3649;48.798;9.798;2023-08-01T03:08:35;21.00;99.90
7216;DHT22;3649;48.798;9.798;2023-08-01T03:11:02;20.80;99.90
7216;DHT22;3649;48.798;9.798;2023-08-01T03:13:29;20.90;99.90
7216;DHT22;3649;48.798;9.798;2023-08-01T03:15:56;20.80;99.90
7216;DHT22;3649;48.798;9.798;2023-08-01T03:18:22;20.80;99.90
7216;DHT22;3649;48.798;9.798;2023-08-01T03:20:50;20.70;99.90
7216;DHT22;3649;48.798;9.798;2023-08-01T03:23:17;20.70;99.90
7216;DHT22;3649;48.798;9.798;2023-08-01T03:25:44;20.70;99.90
7216;DHT22;3649;48.798;9.798;2023-08-01T03:28:11;20.70;99.90
7216;DHT22;3649;48.798;9.798;2023-08-01T03:30:38;20.70;99.90
7216;DHT22;3649;48.798;9.798;2023-08-01T03:33:04;20.80;99.90
7216;DHT22;3649;48.798;9.798;2023-08-01T03:35:31;20.80;99.90
7216;DHT22;3649;48.798;9.798;2023-08-01T03:37:59;20.80;99.90
7216;DHT22;3649;48.798;9.798;2023-08-01T03:40:25;20.80;99.90
7216;DHT22;3649;48.798;9.798;2023-08-01T03:42:53;20.80;99.90
7216;DHT22;3649;48.798;9.798;2023-08-01T03:45:19;20.80;99.90
7216;DHT22;3649;48.798;9.798;2023-08-01T03:47:46;20.80;99.90
7216;DHT22;3649;48.798;9.798;2023-08-01T03:50:13;20.90;99.90
7216;DHT22;3649;48.798;9.798;2023-08-01T03:52:40;20.90;99.90
7216;DHT22;3649;48.798;9.798;2023-08-01T03:55:08;21.00;99.90
7216;DHT22;3649;48.798;9.798;2023-08-01T03:57:35;21.00;99.90
7216;DHT22;3649;48.798;9.798;2023-08-01T04:00:02;21.00;99.90
7216;DHT22;3649;48.798;9.798;2023-08-01T04:02:30;19.90;99.90
7216;DHT22;3649;48.798;9.798;2023-08-01T04:04:57;21.10;99.90
7216;DHT22;3649;48.798;9.798;2023-08-01T04:07:24;21.20;99.90
7216;DHT22;3649;48.798;9.798;2023-08-01T04:09:50;21.20;99.90
7216;DHT22;3649;48.798;9.798;2023-08-01T04:12:17;21.20;99.90
7216;DHT22;3649;48.798;9.798;2023-08-01T04:14:44;21.20;99.90
7216;DHT22;3649;48.798;9.798;2023-08-01T04:17:11;21.20;99.90
7216;DHT22;3649;48.798;9.798;2023-08-01T04:19:38;21.20;99.90
7216;DHT22;3649;48.798;9.798;2023-08-01T04:22:04;21.30;99.90
7216;DHT22;3649;48.798;9.798;2023-08-01T04:24:31;21.20;99.90
7216;DHT22;3649;48.798;9.798;2023-08-01T04:26:58;21.20;99.90
7216;DHT22;3649;48.798;9.798;2023-08-01T04:29:25;21.20;99.90
7216;DHT22;3649;48.798;9.798;2023-08-01T04:31:52;21.20;99.90
7216;DHT22;3649;48.798;9.798;2023-08-01T04:34:18;21.10;99.90
7216;DHT22;3649;48.798;9.798;2023-08-01T04:36:45;21.10;99.90
7216;DHT22;3649;48.798;9.798;2023-08-01T04:39:12;21.10;99.90
7216;DHT22;3649;48.798;9.798;2023-08-01T04:41:39;21.00;99.90
7216;DHT22;3649;48.798;9.798;2023-08-01T04:44:06;21.10;99.90
7216;DHT22;3649;48.798;9.798;2023-08-01T04:46:33;21.50;99.90
7216;DHT22;3649;48.798;9.798;2023-08-01T04:49:00;21.20;99.90
7216;DHT22;3649;48.798;9.798;2023-08-01T04:51:27;21.20;99.90
7216;DHT22;3649;48.798;9.798;2023-08-01T04:53:53;21.20;99.90
7216;DHT22;3649;48.798;9.798;2023-08-01T04:56:20;21.30;99.90
7216;DHT22;3649;48.798;9.798;2023-08-01T04:58:47;21.20;99.90
7216;DHT22;3649;48.798;9.798;2023-08-01T05:01:14;21.40;99.90
7216;DHT22;3649;48.798;9.798;2023-08-01T05:03:41;21.40;99.90
7216;DHT22;3649;48.798;9.798;2023-08-01T05:06:08;21.40;99.90
7216;DHT22;3649;48.798;9.798;2023-08-01T05:08:35;21.40;99.90
7216;DHT22;3649;48.798;9.798;2023-08-01T05:11:01;21.40;99.90
7216;DHT22;3649;48.798;9.798;2023-08-01T05:13:29;21.40;99.90
7216;DHT22;3649;48.798;9.798;2023-08-01T05:15:56;21.50;99.90
7216;DHT22;3649;48.798;9.798;2023-08-01T05:18:23;21.60;99.90
7216;DHT22;3649;48.798;9.798;2023-08-01T05:20:49;21.60;99.90
7216;DHT22;3649;48.798;9.798;2023-08-01T05:23:16;21.50;99.90
7216;DHT22;3649;48.798;9.798;2023-08-01T05:25:43;21.50;99.90
7216;DHT22;3649;48.798;9.798;2023-08-01T05:28:10;21.50;99.90
7216;DHT22;3649;48.798;9.798;2023-08-01T05:30:40;21.60;99.90
7216;DHT22;3649;48.798;9.798;2023-08-01T05:33:07;21.60;99.90
7216;DHT22;3649;48.798;9.798;2023-08-01T05:35:34;21.50;99.90
7216;DHT22;3649;48.798;9.798;2023-08-01T05:38:00;21.50;99.90
7216;DHT22;3649;48.798;9.798;2023-08-01T05:40:28;21.60;99.90
7216;DHT22;3649;48.798;9.798;2023-08-01T05:42:55;21.60;99.90
7216;DHT22;3649;48.798;9.798;2023-08-01T05:45:22;21.60;99.90
7216;DHT22;3649;48.798;9.798;2023-08-01T05:47:48;21.60;99.90
7216;DHT22;3649;48.798;9.798;2023-08-01T05:50:15;21.70;99.90
7216;DHT22;3649;48.798;9.798;2023-08-01T05:52:42;21.70;99.90
7216;DHT22;3649;48.798;9.798;2023-08-01T05:55:09;21.60;99.90
7216;DHT22;3649;48.798;9.798;2023-08-01T05:57:36;21.60;99.90
7216;DHT22;3649;48.798;9.798;2023-08-01T06:00:03;21.60;99.90
7216;DHT22;3649;48.798;9.798;2023-08-01T06:02:30;21.60;99.90
7216;DHT22;3649;48.798;9.798;2023-08-01T06:04:57;21.60;99.90
7216;DHT22;3649;48.798;9.798;2023-08-01T06:07:24;21.60;99.90
7216;DHT22;3649;48.798;9.798;2023-08-01T06:09:51;21.70;99.90
7216;DHT22;3649;48.798;9.798;2023-08-01T06:12:18;21.70;99.90
7216;DHT22;3649;48.798;9.798;2023-08-01T06:14:46;21.70;99.90
7216;DHT22;3649;48.798;9.798;2023-08-01T06:17:13;21.70;99.90
7216;DHT22;3649;48.798;9.798;2023-08-01T06:19:40;21.60;99.90
7216;DHT22;3649;48.798;9.798;2023-08-01T06:22:08;21.70;99.90
7216;DHT22;3649;48.798;9.798;2023-08-01T06:24:35;21.70;99.90
7216;DHT22;3649;48.798;9.798;2023-08-01T06:27:02;21.80;99.90
7216;DHT22;3649;48.798;9.798;2023-08-01T06:29:28;21.70;99.90
7216;DHT22;3649;48.798;9.798;2023-08-01T06:31:55;21.80;99.90
7216;DHT22;3649;48.798;9.798;2023-08-01T06:34:22;21.70;99.90
7216;DHT22;3649;48.798;9.798;2023-08-01T06:36:52;21.70;99.90
7216;DHT22;3649;48.798;9.798;2023-08-01T06:39:19;21.70;99.90
7216;DHT22;3649;48.798;9.798;2023-08-01T06:41:47;21.70;99.90
7216;DHT22;3649;48.798;9.798;2023-08-01T06:44:13;21.70;99.90
7216;DHT22;3649;48.798;9.798;2023-08-01T06:46:40;21.70;99.90
7216;DHT22;3649;48.798;9.798;2023-08-01T06:49:08;21.70;99.90
7216;DHT22;3649;48.798;9.798;2023-08-01T06:51:35;21.70;99.90
7216;DHT22;3649;48.798;9.798;2023-08-01T06:54:02;21.70;99.90
7216;DHT22;3649;48.798;9.798;2023-08-01T06:56:29;21.60;99.90
7216;DHT22;3649;48.798;9.798;2023-08-01T06:58:56;21.50;99.90
7216;DHT22;3649;48.798;9.798;2023-08-01T07:01:22;21.50;99.90
7216;DHT22;3649;48.798;9.798;2023-08-01T07:03:49;21.40;99.90
7216;DHT22;3649;48.798;9.798;2023-08-01T07:06:19;21.20;99.90
7216;DHT22;3649;48.798;9.798;2023-08-01T07:08:46;21.10;99.90
7216;DHT22;3649;48.798;9.798;2023-08-01T07:11:13;20.90;99.90
7216;DHT22;3649;48.798;9.798;2023-08-01T07:13:39;20.80;99.90
7216;DHT22;3649;48.798;9.798;2023-08-01T07:16:06;20.70;99.90
7216;DHT22;3649;48.798;9.798;2023-08-01T07:18:33;20.60;99.90
7216;DHT22;3649;48.798;9.798;2023-08-01T07:21:01;20.50;99.90
7216;DHT22;3649;48.798;9.798;2023-08-01T07:23:28;20.40;99.90
7216;DHT22;3649;48.798;9.798;2023-08-01T07:25:55;20.30;99.90
7216;DHT22;3649;48.798;9.798;2023-08-01T07:28:22;20.20;99.90
7216;DHT22;3649;48.798;9.798;2023-08-01T07:31:00;20.10;99.90
7216;DHT22;3649;48.798;9.798;2023-08-01T07:33:27;20.00;99.90
7216;DHT22;3649;48.798;9.798;2023-08-01T07:35:54;19.90;99.90
7216;DHT22;3649;48.798;9.798;2023-08-01T07:38:21;19.90;99.90
7216;DHT22;3649;48.798;9.798;2023-08-01T07:40:49;19.80;99.90
7216;DHT22;3649;48.798;9.798;2023-08-01T07:43:16;19.70;99.90
7216;DHT22;3649;48.798;9.798;2023-08-01T07:45:43;19.80;99.90
7216;DHT22;3649;48.798;9.798;2023-08-01T07:48:09;19.90;99.90
7216;DHT22;3649;48.798;9.798;2023-08-01T07:50:36;19.80;99.90
7216;DHT22;3649;48.798;9.798;2023-08-01T07:53:03;19.80;99.90
7216;DHT22;3649;48.798;9.798;2023-08-01T07:55:34;19.80;99.90
7216;DHT22;3649;48.798;9.798;2023-08-01T07:58:01;19.90;99.90
7216;DHT22;3649;48.798;9.798;2023-08-01T08:00:28;20.00;99.90
7216;DHT22;3649;48.798;9.798;2023-08-01T08:02:55;19.80;99.90
7216;DHT22;3649;48.798;9.798;2023-08-01T08:05:22;19.80;99.90
7216;DHT22;3649;48.798;9.798;2023-08-01T08:07:49;19.80;99.90
7216;DHT22;3649;48.798;9.798;2023-08-01T08:10:16;19.80;99.90
7216;DHT22;3649;48.798;9.798;2023-08-01T08:12:43;19.80;99.90
7216;DHT22;3649;48.798;9.798;2023-08-01T08:15:10;19.70;99.90
7216;DHT22;3649;48.798;9.798;2023-08-01T08:17:37;19.70;99.90
7216;DHT22;3649;48.798;9.798;2023-08-01T08:20:05;19.70;99.90
7216;DHT22;3649;48.798;9.798;2023-08-01T08:22:32;19.70;99.90
7216;DHT22;3649;48.798;9.798;2023-08-01T08:24:59;19.60;99.90
7216;DHT22;3649;48.798;9.798;2023-08-01T08:27:26;19.70;99.90
7216;DHT22;3649;48.798;9.798;2023-08-01T08:29:53;19.70;99.90
7216;DHT22;3649;48.798;9.798;2023-08-01T08:32:20;19.70;99.90
7216;DHT22;3649;48.798;9.798;2023-08-01T08:34:47;19.60;99.90
7216;DHT22;3649;48.798;9.798;2023-08-01T08:37:15;19.50;99.90
7216;DHT22;3649;48.798;9.798;2023-08-01T08:39:42;19.50;99.90
7216;DHT22;3649;48.798;9.798;2023-08-01T08:42:10;19.50;99.90
7216;DHT22;3649;48.798;9.798;2023-08-01T08:44:42;19.50;99.90
7216;DHT22;3649;48.798;9.798;2023-08-01T08:47:11;19.50;99.90
7216;DHT22;3649;48.798;9.798;2023-08-01T08:49:39;19.50;99.90
7216;DHT22;3649;48.798;9.798;2023-08-01T08:52:08;19.60;99.90
7216;DHT22;3649;48.798;9.798;2023-08-01T08:54:36;19.70;99.90
7216;DHT22;3649;48.798;9.798;2023-08-01T08:57:05;19.70;99.90
7216;DHT22;3649;48.798;9.798;2023-08-01T08:59:33;19.70;99.90
7216;DHT22;3649;48.798;9.798;2023-08-01T09:02:04;19.80;99.90
7216;DHT22;3649;48.798;9.798;2023-08-01T09:04:32;19.80;99.90
7216;DHT22;3649;48.798;9.798;2023-08-01T09:07:03;19.70;99.90
7216;DHT22;3649;48.798;9.798;2023-08-01T09:09:34;19.70;99.90
7216;DHT22;3649;48.798;9.798;2023-08-01T09:12:02;19.70;99.90
7216;DHT22;3649;48.798;9.798;2023-08-01T09:14:29;19.70;99.90
7216;DHT22;3649;48.798;9.798;2023-08-01T09:17:07;19.70;99.90
7216;DHT22;3649;48.798;9.798;2023-08-01T09:19:35;19.70;99.90
7216;DHT22;3649;48.798;9.798;2023-08-01T09:22:10;19.70;99.90
7216;DHT22;3649;48.798;9.798;2023-08-01T09:24:38;19.70;99.90
7216;DHT22;3649;48.798;9.798;2023-08-01T09:27:06;19.70;99.90
7216;DHT22;3649;48.798;9.798;2023-08-01T09:29:35;19.80;99.90
7216;DHT22;3649;48.798;9.798;2023-08-01T09:32:12;19.80;99.90
7216;DHT22;3649;48.798;9.798;2023-08-01T09:34:41;19.80;99.90
7216;DHT22;3649;48.798;9.798;2023-08-01T09:37:09;19.80;99.90
7216;DHT22;3649;48.798;9.798;2023-08-01T09:39:36;19.90;99.90
7216;DHT22;3649;48.798;9.798;2023-08-01T09:42:04;20.00;99.90
7216;DHT22;3649;48.798;9.798;2023-08-01T09:44:30;20.00;99.90
7216;DHT22;3649;48.798;9.798;2023-08-01T09:47:02;20.20;99.90
7216;DHT22;3649;48.798;9.798;2023-08-01T09:49:31;20.30;99.90
7216;DHT22;3649;48.798;9.798;2023-08-01T09:51:58;20.40;99.90
7216;DHT22;3649;48.798;9.798;2023-08-01T09:54:25;20.40;99.90
7216;DHT22;3649;48.798;9.798;2023-08-01T09:56:54;20.40;99.90
7216;DHT22;3649;48.798;9.798;2023-08-01T09:59:24;20.30;99.90
7216;DHT22;3649;48.798;9.798;2023-08-01T10:01:53;20.40;99.90
7216;DHT22;3649;48.798;9.798;2023-08-01T10:04:29;20.50;99.90
7216;DHT22;3649;48.798;9.798;2023-08-01T10:07:05;20.50;99.90
7216;DHT22;3649;48.798;9.798;2023-08-01T10:09:34;20.50;99.90
7216;DHT22;3649;48.798;9.798;2023-08-01T10:12:03;20.60;99.90
7216;DHT22;3649;48.798;9.798;2023-08-01T10:14:35;20.50;99.90
7216;DHT22;3649;48.798;9.798;2023-08-01T10:17:03;20.60;99.90
7216;DHT22;3649;48.798;9.798;2023-08-01T10:19:31;20.50;99.90
7216;DHT22;3649;48.798;9.798;2023-08-01T10:22:00;20.60;99.90
7216;DHT22;3649;48.798;9.798;2023-08-01T10:24:28;20.60;99.90
7216;DHT22;3649;48.798;9.798;2023-08-01T10:26:55;20.60;99.90
7216;DHT22;3649;48.798;9.798;2023-08-01T10:29:36;20.60;99.90
7216;DHT22;3649;48.798;9.798;2023-08-01T10:32:06;20.60;99.90
7216;DHT22;3649;48.798;9.798;2023-08-01T10:34:34;20.60;99.90
7216;DHT22;3649;48.798;9.798;2023-08-01T10:37:01;20.60;99.90
7216;DHT22;3649;48.798;9.798;2023-08-01T10:39:28;20.70;99.90
7216;DHT22;3649;48.798;9.798;2023-08-01T10:42:03;20.70;99.90
7216;DHT22;3649;48.798;9.798;2023-08-01T10:44:32;20.60;99.90
7216;DHT22;3649;48.798;9.798;2023-08-01T10:47:03;20.70;99.90
7216;DHT22;3649;48.798;9.798;2023-08-01T10:49:39;20.70;99.90
7216;DHT22;3649;48.798;9.798;2023-08-01T10:54:45;20.80;99.90
7216;DHT22;3649;48.798;9.798;2023-08-01T10:57:17;20.80;99.90
7216;DHT22;3649;48.798;9.798;2023-08-01T10:59:45;20.80;99.90
7216;DHT22;3649;48.798;9.798;2023-08-01T11:02:20;20.90;99.90
7216;DHT22;3649;48.798;9.798;2023-08-01T11:05:05;21.00;99.90
7216;DHT22;3649;48.798;9.798;2023-08-01T11:07:33;21.00;99.90
7216;DHT22;3649;48.798;9.798;2023-08-01T11:12:34;21.10;99.90
7216;DHT22;3649;48.798;9.798;2023-08-01T11:15:03;21.10;99.90
7216;DHT22;3649;48.798;9.798;2023-08-01T11:17:31;21.20;99.90
7216;DHT22;3649;48.798;9.798;2023-08-01T11:20:03;21.20;99.90
7216;DHT22;3649;48.798;9.798;2023-08-01T11:22:32;21.30;99.90
7216;DHT22;3649;48.798;9.798;2023-08-01T11:24:59;21.40;99.90
7216;DHT22;3649;48.798;9.798;2023-08-01T11:27:26;21.50;99.90
7216;DHT22;3649;48.798;9.798;2023-08-01T11:29:55;21.60;99.90
7216;DHT22;3649;48.798;9.798;2023-08-01T11:32:33;21.60;99.90
7216;DHT22;3649;48.798;9.798;2023-08-01T11:35:01;21.70;99.90
7216;DHT22;3649;48.798;9.798;2023-08-01T11:37:30;21.80;99.90
7216;DHT22;3649;48.798;9.798;2023-08-01T11:39:57;21.90;99.90
7216;DHT22;3649;48.798;9.798;2023-08-01T11:42:30;21.90;99.90
7216;DHT22;3649;48.798;9.798;2023-08-01T11:45:08;22.00;99.90
7216;DHT22;3649;48.798;9.798;2023-08-01T11:47:36;22.00;99.90
7216;DHT22;3649;48.798;9.798;2023-08-01T11:50:05;21.80;99.90
7216;DHT22;3649;48.798;9.798;2023-08-01T11:52:32;21.70;99.90
7216;DHT22;3649;48.798;9.798;2023-08-01T11:54:59;21.70;99.90
7216;DHT22;3649;48.798;9.798;2023-08-01T11:57:26;21.70;99.90
7216;DHT22;3649;48.798;9.798;2023-08-01T11:59:55;21.70;99.90
7216;DHT22;3649;48.798;9.798;2023-08-01T12:02:25;21.70;99.90
7216;DHT22;3649;48.798;9.798;2023-08-01T12:04:53;21.70;99.90
7216;DHT22;3649;48.798;9.798;2023-08-01T12:07:21;21.80;99.90
7216;DHT22;3649;48.798;9.798;2023-08-01T12:09:58;21.80;99.90
7216;DHT22;3649;48.798;9.798;2023-08-01T12:12:27;21.90;99.90
7216;DHT22;3649;48.798;9.798;2023-08-01T12:14:55;22.00;99.90
7216;DHT22;3649;48.798;9.798;2023-08-01T12:17:23;22.10;99.90
7216;DHT22;3649;48.798;9.798;2023-08-01T12:19:50;22.10;99.90
7216;DHT22;3649;48.798;9.798;2023-08-01T12:22:17;22.10;99.90
7216;DHT22;3649;48.798;9.798;2023-08-01T12:24:44;22.10;99.90
7216;DHT22;3649;48.798;9.798;2023-08-01T12:27:11;22.20;99.90
7216;DHT22;3649;48.798;9.798;2023-08-01T12:29:38;22.20;99.90
7216;DHT22;3649;48.798;9.798;2023-08-01T12:32:06;22.50;99.90
7216;DHT22;3649;48.798;9.798;2023-08-01T12:34:35;22.40;99.90
7216;DHT22;3649;48.798;9.798;2023-08-01T12:37:02;22.40;99.90
7216;DHT22;3649;48.798;9.798;2023-08-01T12:39:30;22.30;99.90
7216;DHT22;3649;48.798;9.798;2023-08-01T12:41:56;22.30;99.90
7216;DHT22;3649;48.798;9.798;2023-08-01T12:44:24;22.30;99.90
7216;DHT22;3649;48.798;9.798;2023-08-01T12:46:50;22.30;99.90
7216;DHT22;3649;48.798;9.798;2023-08-01T12:49:18;22.30;99.90
7216;DHT22;3649;48.798;9.798;2023-08-01T12:51:46;22.30;99.90
7216;DHT22;3649;48.798;9.798;2023-08-01T12:54:17;22.40;99.90
7216;DHT22;3649;48.798;9.798;2023-08-01T12:56:44;22.40;99.90
7216;DHT22;3649;48.798;9.798;2023-08-01T12:59:11;22.40;99.90
7216;DHT22;3649;48.798;9.798;2023-08-01T13:01:38;22.50;99.90
7216;DHT22;3649;48.798;9.798;2023-08-01T13:04:06;22.60;99.90
7216;DHT22;3649;48.798;9.798;2023-08-01T13:06:33;22.60;99.90
7216;DHT22;3649;48.798;9.798;2023-08-01T13:09:00;22.70;99.90
7216;DHT22;3649;48.798;9.798;2023-08-01T13:11:27;22.70;99.90
7216;DHT22;3649;48.798;9.798;2023-08-01T13:13:55;22.70;99.90
7216;DHT22;3649;48.798;9.798;2023-08-01T13:16:22;22.80;99.90
7216;DHT22;3649;48.798;9.798;2023-08-01T13:18:49;22.80;99.90
7216;DHT22;3649;48.798;9.798;2023-08-01T13:21:16;22.80;99.90
7216;DHT22;3649;48.798;9.798;2023-08-01T13:23:44;22.90;99.90
7216;DHT22;3649;48.798;9.798;2023-08-01T13:26:11;23.00;99.90
7216;DHT22;3649;48.798;9.798;2023-08-01T13:28:38;23.10;99.90
7216;DHT22;3649;48.798;9.798;2023-08-01T13:31:05;23.10;99.90
7216;DHT22;3649;48.798;9.798;2023-08-01T13:33:32;23.20;99.90
7216;DHT22;3649;48.798;9.798;2023-08-01T13:35:59;23.30;99.90
7216;DHT22;3649;48.798;9.798;2023-08-01T13:38:26;23.40;99.90
7216;DHT22;3649;48.798;9.798;2023-08-01T13:40:59;23.50;99.90
7216;DHT22;3649;48.798;9.798;2023-08-01T13:43:27;23.30;99.90
7216;DHT22;3649;48.798;9.798;2023-08-01T13:45:54;23.40;99.90
7216;DHT22;3649;48.798;9.798;2023-08-01T13:48:22;23.30;99.90
7216;DHT22;3649;48.798;9.798;2023-08-01T13:50:50;23.30;99.90
7216;DHT22;3649;48.798;9.798;2023-08-01T13:53:18;23.30;99.90
7216;DHT22;3649;48.798;9.798;2023-08-01T13:55:45;23.30;99.90
7216;DHT22;3649;48.798;9.798;2023-08-01T13:58:12;23.10;99.90
7216;DHT22;3649;48.798;9.798;2023-08-01T14:00:39;23.30;99.90
7216;DHT22;3649;48.798;9.798;2023-08-01T14:03:06;23.30;99.90
7216;DHT22;3649;48.798;9.798;2023-08-01T14:05:34;23.30;99.90
7216;DHT22;3649;48.798;9.798;2023-08-01T14:08:01;23.30;99.90
7216;DHT22;3649;48.798;9.798;2023-08-01T14:10:29;23.40;99.90
7216;DHT22;3649;48.798;9.798;2023-08-01T14:12:56;23.50;99.90
7216;DHT22;3649;48.798;9.798;2023-08-01T14:15:23;23.50;99.90
7216;DHT22;3649;48.798;9.798;2023-08-01T14:17:50;23.60;99.90
7216;DHT22;3649;48.798;9.798;2023-08-01T14:20:19;23.50;99.90
7216;DHT22;3649;48.798;9.798;2023-08-01T14:22:46;23.60;99.90
7216;DHT22;3649;48.798;9.798;2023-08-01T14:25:14;23.60;99.90
7216;DHT22;3649;48.798;9.798;2023-08-01T14:27:41;23.70;99.90
7216;DHT22;3649;48.798;9.798;2023-08-01T14:30:09;23.80;99.90
7216;DHT22;3649;48.798;9.798;2023-08-01T14:32:37;23.80;99.90
7216;DHT22;3649;48.798;9.798;2023-08-01T14:35:06;23.80;99.90
7216;DHT22;3649;48.798;9.798;2023-08-01T14:37:33;23.80;99.90
7216;DHT22;3649;48.798;9.798;2023-08-01T14:40:01;23.90;99.90
7216;DHT22;3649;48.798;9.798;2023-08-01T14:42:28;24.00;99.90
7216;DHT22;3649;48.798;9.798;2023-08-01T14:44:55;23.90;99.90
7216;DHT22;3649;48.798;9.798;2023-08-01T14:47:23;23.90;99.90
7216;DHT22;3649;48.798;9.798;2023-08-01T14:49:50;24.00;99.90
7216;DHT22;3649;48.798;9.798;2023-08-01T14:52:18;24.00;99.90
7216;DHT22;3649;48.798;9.798;2023-08-01T14:54:51;24.10;99.90
7216;DHT22;3649;48.798;9.798;2023-08-01T14:57:19;24.10;99.90
7216;DHT22;3649;48.798;9.798;2023-08-01T14:59:45;24.00;99.90
7216;DHT22;3649;48.798;9.798;2023-08-01T15:02:14;24.00;99.90
7216;DHT22;3649;48.798;9.798;2023-08-01T15:04:41;24.00;99.90
7216;DHT22;3649;48.798;9.798;2023-08-01T15:07:08;24.10;99.90
7216;DHT22;3649;48.798;9.798;2023-08-01T15:09:35;24.00;99.90
7216;DHT22;3649;48.798;9.798;2023-08-01T15:12:03;24.10;99.90
7216;DHT22;3649;48.798;9.798;2023-08-01T15:14:30;24.10;99.90
7216;DHT22;3649;48.798;9.798;2023-08-01T15:16:57;24.10;99.90
7216;DHT22;3649;48.798;9.798;2023-08-01T15:19:24;24.10;99.90
7216;DHT22;3649;48.798;9.798;2023-08-01T15:21:51;24.20;99.90
7216;DHT22;3649;48.798;9.798;2023-08-01T15:24:17;24.20;99.90
7216;DHT22;3649;48.798;9.798;2023-08-01T15:26:44;24.20;99.90
7216;DHT22;3649;48.798;9.798;2023-08-01T15:29:12;24.20;99.90
7216;DHT22;3649;48.798;9.798;2023-08-01T15:31:39;24.20;99.90
7216;DHT22;3649;48.798;9.798;2023-08-01T15:34:06;24.10;99.90
7216;DHT22;3649;48.798;9.798;2023-08-01T15:36:35;24.20;99.90
7216;DHT22;3649;48.798;9.798;2023-08-01T15:39:02;24.00;99.90
7216;DHT22;3649;48.798;9.798;2023-08-01T15:41:29;24.10;99.90
7216;DHT22;3649;48.798;9.798;2023-08-01T15:43:56;24.00;99.90
7216;DHT22;3649;48.798;9.798;2023-08-01T15:46:23;24.00;99.90
7216;DHT22;3649;48.798;9.798;2023-08-01T15:48:50;24.00;99.90
7216;DHT22;3649;48.798;9.798;2023-08-01T15:51:17;23.90;99.90
7216;DHT22;3649;48.798;9.798;2023-08-01T15:53:44;24.00;99.90
7216;DHT22;3649;48.798;9.798;2023-08-01T15:56:11;23.90;99.90
7216;DHT22;3649;48.798;9.798;2023-08-01T15:58:39;23.90;99.90
7216;DHT22;3649;48.798;9.798;2023-08-01T16:01:06;24.00;99.90
7216;DHT22;3649;48.798;9.798;2023-08-01T16:03:36;24.00;99.90
7216;DHT22;3649;48.798;9.798;2023-08-01T16:06:05;24.00;99.90
7216;DHT22;3649;48.798;9.798;2023-08-01T16:08:32;24.00;99.90
7216;DHT22;3649;48.798;9.798;2023-08-01T16:10:59;23.90;99.90